Time;durP1;ratioP1;P1;durP2;ratioP2;P2;SDS_P1;SDS_P2;PMS_P1;PMS_P2;Temp;Humidity;BMP_temperature;BMP_pressure;BME280_temperature;BME280_humidity;BME280_pressure;Samples;Min_cycle;Max_cycle;Signal;HPM_P1;HPM_P2
2024/01/29 00:01:17;;;;;;;45.90;15.00;;;;;;;;;;5039552;28;20047;-41
2024/01/29 00:03:46;;;;;;;41.67;15.32;;;;;;;;;;5027870;28;20040;-42
2024/01/29 00:06:18;;;;;;;55.78;16.38;;;;;;;;;;5026457;28;20133;-42
2024/01/29 00:08:47;;;;;;;46.50;17.17;;;;;;;;;;5043466;28;20041;-41
2024/01/29 00:11:16;;;;;;;54.80;15.38;;;;;;;;;;4997956;28;20063;-43
2024/01/29 00:13:45;;;;;;;50.53;14.87;;;;;;;;;;5042405;28;20433;-41
2024/01/29 00:16:14;;;;;;;52.00;16.05;;;;;;;;;;5010815;28;20094;-41
2024/01/29 00:18:41;;;;;;;50.80;16.45;;;;;;;;;;5037214;28;20059;-41
2024/01/29 00:21:09;;;;;;;45.65;16.30;;;;;;;;;;5020022;28;21904;-41
2024/01/29 00:23:37;;;;;;;46.10;15.02;;;;;;;;;;5032558;28;20053;-40
2024/01/29 00:26:06;;;;;;;46.20;15.93;;;;;;;;;;5010171;28;20045;-41
2024/01/29 00:28:34;;;;;;;56.75;16.67;;;;;;;;;;4846858;28;20041;-41
2024/01/29 00:31:01;;;;;;;53.88;15.77;;;;;;;;;;5020986;28;20109;-41
2024/01/29 00:33:29;;;;;;;44.25;16.55;;;;;;;;;;5028625;28;20043;-43
2024/01/29 00:35:57;;;;;;;53.70;15.95;;;;;;;;;;5025585;28;20044;-41
2024/01/29 00:38:25;;;;;;;57.13;15.80;;;;;;;;;;5035918;28;20055;-42
2024/01/29 00:40:53;;;;;;;52.15;16.23;;;;;;;;;;5018822;28;21212;-43
2024/01/29 00:43:22;;;;;;;41.53;15.20;;;;;;;;;;5038575;28;20044;-42
2024/01/29 00:45:50;;;;;;;52.13;15.93;;;;;;;;;;5020119;28;20959;-41
2024/01/29 00:48:20;;;;;;;51.38;14.95;;;;;;;;;;5027693;28;20068;-42
2024/01/29 00:50:47;;;;;;;52.57;15.57;;;;;;;;;;5015702;28;20045;-41
2024/01/29 00:53:16;;;;;;;54.50;16.95;;;;;;;;;;5039407;28;20044;-41
2024/01/29 00:55:45;;;;;;;55.58;16.20;;;;;;;;;;5019546;28;20312;-43
2024/01/29 00:58:13;;;;;;;57.20;18.30;;;;;;;;;;5028993;28;20755;-41
2024/01/29 01:00:42;;;;;;;53.60;16.85;;;;;;;;;;5022337;28;20029;-43
2024/01/29 01:03:10;;;;;;;49.33;16.57;;;;;;;;;;5011224;28;20052;-41
2024/01/29 01:05:38;;;;;;;51.00;15.85;;;;;;;;;;5024168;28;20041;-41
2024/01/29 01:08:06;;;;;;;59.17;18.15;;;;;;;;;;5013049;28;20139;-41
2024/01/29 01:10:34;;;;;;;53.05;16.58;;;;;;;;;;5035250;28;20052;-42
2024/01/29 01:13:03;;;;;;;56.55;16.75;;;;;;;;;;5014363;28;20047;-44
2024/01/29 01:15:31;;;;;;;43.93;15.37;;;;;;;;;;5039750;28;20051;-42
2024/01/29 01:18:00;;;;;;;54.15;16.92;;;;;;;;;;5002401;28;20926;-41
2024/01/29 01:20:28;;;;;;;48.65;16.80;;;;;;;;;;5039950;28;20410;-41
2024/01/29 01:22:56;;;;;;;58.25;16.58;;;;;;;;;;5016542;28;20499;-41
2024/01/29 01:25:23;;;;;;;56.38;16.38;;;;;;;;;;5026236;28;20044;-41
2024/01/29 01:27:53;;;;;;;51.60;17.20;;;;;;;;;;4834096;28;20047;-42
2024/01/29 01:30:22;;;;;;;56.88;16.50;;;;;;;;;;5037112;28;20044;-41
2024/01/29 01:32:49;;;;;;;51.30;16.35;;;;;;;;;;5022907;28;20032;-41
2024/01/29 01:35:19;;;;;;;50.00;15.73;;;;;;;;;;5039689;28;20042;-42
2024/01/29 01:37:46;;;;;;;57.85;16.98;;;;;;;;;;5024762;28;20718;-41
2024/01/29 01:40:14;;;;;;;50.77;16.70;;;;;;;;;;5048408;28;20041;-42
2024/01/29 01:42:43;;;;;;;43.35;15.25;;;;;;;;;;5031752;28;20055;-41
2024/01/29 01:45:12;;;;;;;47.08;14.98;;;;;;;;;;5033100;28;20499;-41
2024/01/29 01:47:41;;;;;;;46.65;15.20;;;;;;;;;;5022096;28;20051;-41
2024/01/29 01:50:09;;;;;;;38.33;13.65;;;;;;;;;;5035748;28;20048;-41
2024/01/29 01:52:40;;;;;;;42.80;14.53;;;;;;;;;;5030147;28;20509;-42
2024/01/29 01:55:08;;;;;;;45.83;13.57;;;;;;;;;;5038681;28;20051;-44
2024/01/29 01:57:38;;;;;;;42.88;14.43;;;;;;;;;;5026944;28;20040;-41
2024/01/29 02:00:06;;;;;;;46.17;13.38;;;;;;;;;;5041527;28;20190;-44
2024/01/29 02:02:34;;;;;;;52.83;15.18;;;;;;;;;;5032565;28;20063;-42
2024/01/29 02:05:02;;;;;;;42.30;14.50;;;;;;;;;;5029031;28;20806;-41
2024/01/29 02:07:30;;;;;;;43.90;14.02;;;;;;;;;;5045242;28;20036;-42
2024/01/29 02:09:59;;;;;;;47.83;14.63;;;;;;;;;;5020430;28;20044;-42
2024/01/29 02:12:27;;;;;;;41.20;14.30;;;;;;;;;;5048915;28;20043;-42
2024/01/29 02:14:55;;;;;;;49.58;14.82;;;;;;;;;;5023882;28;20044;-42
2024/01/29 02:17:22;;;;;;;42.97;14.93;;;;;;;;;;5031471;28;20212;-41
2024/01/29 02:19:50;;;;;;;47.13;15.38;;;;;;;;;;5000186;28;20048;-43
2024/01/29 02:22:41;;;;;;;40.45;15.38;;;;;;;;;;5045017;28;20051;-41
2024/01/29 02:25:09;;;;;;;43.15;15.82;;;;;;;;;;5029651;28;20040;-43
2024/01/29 02:27:36;;;;;;;44.60;15.55;;;;;;;;;;4972880;28;20542;-41
2024/01/29 02:30:05;;;;;;;47.33;17.60;;;;;;;;;;4937960;28;20048;-44
2024/01/29 02:32:33;;;;;;;45.28;16.45;;;;;;;;;;5042046;28;20056;-41
2024/01/29 02:35:01;;;;;;;50.50;16.85;;;;;;;;;;5032827;28;20050;-43
2024/01/29 02:37:28;;;;;;;48.15;17.00;;;;;;;;;;5039783;28;20080;-41
2024/01/29 02:39:57;;;;;;;46.00;15.68;;;;;;;;;;5012047;28;20036;-43
2024/01/29 02:42:25;;;;;;;52.50;15.60;;;;;;;;;;5041404;28;20131;-42
2024/01/29 02:44:53;;;;;;;45.47;15.57;;;;;;;;;;5024160;28;20545;-42
2024/01/29 02:47:21;;;;;;;44.63;16.73;;;;;;;;;;5039247;28;20041;-45
2024/01/29 02:49:50;;;;;;;42.05;15.88;;;;;;;;;;5045948;28;20036;-42
2024/01/29 02:52:19;;;;;;;41.17;15.15;;;;;;;;;;5018662;28;20048;-41
2024/01/29 02:54:46;;;;;;;46.03;14.60;;;;;;;;;;5050600;28;20045;-41
2024/01/29 02:57:16;;;;;;;42.22;15.13;;;;;;;;;;5042524;28;20151;-41
2024/01/29 02:59:43;;;;;;;44.65;15.23;;;;;;;;;;5025188;28;20062;-42
2024/01/29 03:02:11;;;;;;;48.22;16.17;;;;;;;;;;5030542;28;20537;-41
2024/01/29 03:04:40;;;;;;;45.65;16.67;;;;;;;;;;5039641;28;20058;-40
2024/01/29 03:07:08;;;;;;;42.73;15.00;;;;;;;;;;5046612;28;20041;-41
2024/01/29 03:09:36;;;;;;;48.30;14.93;;;;;;;;;;5036604;28;20036;-43
2024/01/29 03:12:04;;;;;;;44.40;14.95;;;;;;;;;;5048728;28;20064;-42
2024/01/29 03:14:33;;;;;;;41.38;16.45;;;;;;;;;;5028882;28;20058;-42
2024/01/29 03:17:01;;;;;;;42.97;16.33;;;;;;;;;;5040535;28;20041;-43
2024/01/29 03:19:28;;;;;;;42.10;14.63;;;;;;;;;;5017767;28;20384;-41
2024/01/29 03:21:56;;;;;;;46.35;15.98;;;;;;;;;;5049888;28;20041;-41
2024/01/29 03:24:24;;;;;;;51.90;16.02;;;;;;;;;;5035804;28;20040;-45
2024/01/29 03:26:52;;;;;;;44.95;15.85;;;;;;;;;;4940152;28;20053;-42
2024/01/29 03:29:23;;;;;;;44.47;16.23;;;;;;;;;;4937497;28;20041;-43
2024/01/29 03:31:54;;;;;;;43.33;15.57;;;;;;;;;;5035685;28;20041;-41
2024/01/29 03:34:22;;;;;;;43.90;14.02;;;;;;;;;;5033688;28;20587;-41
2024/01/29 03:36:49;;;;;;;42.15;14.88;;;;;;;;;;5046300;28;20025;-41
2024/01/29 03:39:18;;;;;;;46.03;15.10;;;;;;;;;;5025294;28;20041;-42
2024/01/29 03:41:47;;;;;;;41.60;14.48;;;;;;;;;;5035373;28;20060;-41
2024/01/29 03:44:15;;;;;;;43.13;14.90;;;;;;;;;;5039425;28;20040;-42
2024/01/29 03:46:43;;;;;;;41.20;13.98;;;;;;;;;;5034006;28;20041;-41
2024/01/29 03:49:13;;;;;;;35.80;13.90;;;;;;;;;;5038406;28;20036;-41
2024/01/29 03:51:40;;;;;;;36.30;12.95;;;;;;;;;;5034957;28;20482;-41
2024/01/29 03:54:08;;;;;;;34.47;13.43;;;;;;;;;;5039261;28;20044;-41
2024/01/29 03:56:36;;;;;;;39.40;13.60;;;;;;;;;;5061020;28;20048;-42
2024/01/29 03:59:03;;;;;;;37.75;15.35;;;;;;;;;;5005134;28;20530;-41
2024/01/29 04:01:31;;;;;;;38.47;13.82;;;;;;;;;;5028549;28;20052;-41
2024/01/29 04:03:59;;;;;;;39.08;13.57;;;;;;;;;;5030242;28;20110;-41
2024/01/29 04:06:28;;;;;;;44.17;15.55;;;;;;;;;;5019200;28;20445;-41
2024/01/29 04:08:56;;;;;;;37.10;13.27;;;;;;;;;;5019111;28;20710;-41
2024/01/29 04:11:24;;;;;;;44.50;13.73;;;;;;;;;;5045667;28;20056;-41
2024/01/29 04:13:52;;;;;;;39.25;13.82;;;;;;;;;;5038610;28;20044;-41
2024/01/29 04:16:20;;;;;;;40.63;15.20;;;;;;;;;;5026647;28;20640;-41
2024/01/29 04:18:47;;;;;;;42.45;14.10;;;;;;;;;;5038222;28;20498;-42
2024/01/29 04:21:16;;;;;;;43.40;15.20;;;;;;;;;;5006154;28;20037;-42
2024/01/29 04:23:45;;;;;;;38.08;14.18;;;;;;;;;;5046168;28;20945;-42
2024/01/29 04:26:12;;;;;;;43.08;15.60;;;;;;;;;;5018379;28;20396;-41
2024/01/29 04:28:40;;;;;;;40.67;14.90;;;;;;;;;;4841039;28;20044;-42
2024/01/29 04:31:08;;;;;;;43.63;15.15;;;;;;;;;;5036542;28;20044;-41
2024/01/29 04:33:38;;;;;;;36.03;14.13;;;;;;;;;;4996914;28;20051;-40
2024/01/29 04:36:10;;;;;;;36.97;14.60;;;;;;;;;;5049175;28;20073;-43
2024/01/29 04:38:38;;;;;;;34.55;14.35;;;;;;;;;;5054983;28;20049;-43
2024/01/29 04:41:07;;;;;;;41.70;14.35;;;;;;;;;;5036419;28;20049;-41
2024/01/29 04:43:34;;;;;;;38.97;14.07;;;;;;;;;;5022551;28;20033;-41
2024/01/29 04:46:02;;;;;;;38.53;14.27;;;;;;;;;;5032457;28;20052;-43
2024/01/29 04:48:30;;;;;;;47.50;15.52;;;;;;;;;;5012623;28;20072;-41
2024/01/29 04:50:58;;;;;;;40.50;15.13;;;;;;;;;;5036920;28;20052;-43
2024/01/29 04:53:25;;;;;;;39.08;15.80;;;;;;;;;;5034045;28;20047;-41
2024/01/29 04:55:53;;;;;;;44.47;14.30;;;;;;;;;;5030343;28;20043;-42
2024/01/29 04:58:22;;;;;;;36.90;12.80;;;;;;;;;;5045638;28;20102;-41
2024/01/29 05:00:50;;;;;;;41.78;15.45;;;;;;;;;;5026627;28;20029;-41
2024/01/29 05:03:18;;;;;;;43.50;15.48;;;;;;;;;;5043093;28;20056;-41
2024/01/29 05:05:45;;;;;;;44.92;13.93;;;;;;;;;;5022830;28;20041;-41
2024/01/29 05:08:14;;;;;;;48.40;14.10;;;;;;;;;;5049953;28;20040;-41
2024/01/29 05:10:42;;;;;;;35.57;12.50;;;;;;;;;;5043800;28;20437;-40
2024/01/29 05:13:09;;;;;;;37.13;14.20;;;;;;;;;;5040256;28;20426;-40
2024/01/29 05:15:39;;;;;;;36.22;12.65;;;;;;;;;;5030630;28;20410;-41
2024/01/29 05:18:07;;;;;;;35.28;13.77;;;;;;;;;;5046642;28;20131;-42
2024/01/29 05:20:35;;;;;;;34.58;13.35;;;;;;;;;;5028344;28;20383;-41
2024/01/29 05:23:04;;;;;;;35.27;13.33;;;;;;;;;;5043368;28;20036;-41
2024/01/29 05:25:38;;;;;;;38.28;13.55;;;;;;;;;;5026868;28;20564;-42
2024/01/29 05:28:06;;;;;;;36.38;12.77;;;;;;;;;;4861524;28;22785;-42
2024/01/29 05:30:34;;;;;;;35.65;13.38;;;;;;;;;;5036416;28;20052;-43
2024/01/29 05:33:03;;;;;;;32.92;12.57;;;;;;;;;;5023868;28;20041;-43
2024/01/29 05:35:51;;;;;;;33.77;12.27;;;;;;;;;;5014316;28;20211;-42
2024/01/29 05:38:21;;;;;;;34.13;12.20;;;;;;;;;;5042878;28;20380;-41
2024/01/29 05:40:48;;;;;;;31.35;12.15;;;;;;;;;;5031225;28;20055;-41
2024/01/29 05:43:17;;;;;;;34.78;11.85;;;;;;;;;;5036811;28;20064;-42
2024/01/29 05:45:47;;;;;;;33.55;11.32;;;;;;;;;;5035575;28;20048;-42
2024/01/29 05:48:16;;;;;;;40.87;12.73;;;;;;;;;;5032234;28;20073;-42
2024/01/29 05:50:44;;;;;;;31.92;11.95;;;;;;;;;;5015951;28;20052;-42
2024/01/29 05:53:12;;;;;;;35.88;12.30;;;;;;;;;;5019923;28;20120;-44
2024/01/29 05:55:40;;;;;;;32.55;12.02;;;;;;;;;;5015765;28;20126;-41
2024/01/29 05:58:08;;;;;;;33.88;12.38;;;;;;;;;;5030624;28;20033;-41
2024/01/29 06:00:36;;;;;;;33.43;12.00;;;;;;;;;;5019151;28;20049;-42
2024/01/29 06:03:04;;;;;;;33.70;12.48;;;;;;;;;;5022857;28;21038;-43
2024/01/29 06:05:34;;;;;;;31.77;11.63;;;;;;;;;;5019940;28;20041;-43
2024/01/29 06:08:01;;;;;;;36.03;12.35;;;;;;;;;;5034423;28;20773;-41
2024/01/29 06:10:29;;;;;;;37.20;12.82;;;;;;;;;;5010136;28;20476;-41
2024/01/29 06:12:59;;;;;;;38.37;13.03;;;;;;;;;;5041810;28;20062;-41
2024/01/29 06:15:27;;;;;;;36.85;12.25;;;;;;;;;;5003352;28;20041;-41
2024/01/29 06:17:56;;;;;;;37.38;12.88;;;;;;;;;;5018131;28;20048;-41
2024/01/29 06:20:24;;;;;;;32.47;11.77;;;;;;;;;;5021371;28;20565;-41
2024/01/29 06:22:54;;;;;;;37.42;13.52;;;;;;;;;;5028637;28;20044;-42
2024/01/29 06:25:22;;;;;;;37.50;13.73;;;;;;;;;;5017556;28;20040;-41
2024/01/29 06:27:54;;;;;;;33.60;13.25;;;;;;;;;;4851486;28;20036;-43
2024/01/29 06:30:23;;;;;;;42.58;13.65;;;;;;;;;;5021602;28;20071;-42
2024/01/29 06:32:51;;;;;;;40.10;12.98;;;;;;;;;;5024991;28;20051;-40
2024/01/29 06:35:22;;;;;;;38.20;13.52;;;;;;;;;;5039142;28;20125;-42
2024/01/29 06:37:49;;;;;;;30.03;11.50;;;;;;;;;;5027725;28;20044;-40
2024/01/29 06:40:22;;;;;;;32.85;12.73;;;;;;;;;;5031354;28;20117;-41
2024/01/29 06:42:51;;;;;;;42.92;13.32;;;;;;;;;;5027638;28;20047;-41
2024/01/29 06:45:19;;;;;;;42.58;13.60;;;;;;;;;;5025988;28;20047;-42
2024/01/29 06:47:48;;;;;;;40.20;13.00;;;;;;;;;;5019440;28;20059;-44
2024/01/29 06:50:18;;;;;;;41.83;14.27;;;;;;;;;;5022844;28;20331;-42
2024/01/29 06:52:47;;;;;;;43.53;13.65;;;;;;;;;;5037676;28;20466;-42
2024/01/29 06:55:17;;;;;;;45.25;14.27;;;;;;;;;;5029354;28;20470;-41
2024/01/29 06:57:46;;;;;;;43.13;13.75;;;;;;;;;;5026955;28;20544;-41
2024/01/29 07:00:19;;;;;;;36.80;14.48;;;;;;;;;;5019067;28;20044;-42
2024/01/29 07:02:47;;;;;;;42.47;14.53;;;;;;;;;;5024204;28;20045;-40
2024/01/29 07:05:18;;;;;;;41.10;12.93;;;;;;;;;;5007787;28;21022;-41
2024/01/29 07:07:46;;;;;;;39.60;13.13;;;;;;;;;;5034518;28;20033;-40
2024/01/29 07:10:14;;;;;;;44.25;14.40;;;;;;;;;;5036662;28;20118;-41
2024/01/29 07:12:43;;;;;;;47.75;15.52;;;;;;;;;;5024783;28;20036;-40
2024/01/29 07:15:14;;;;;;;36.20;12.77;;;;;;;;;;5034960;28;20040;-40
2024/01/29 07:17:42;;;;;;;46.17;14.43;;;;;;;;;;5024763;28;20036;-41
2024/01/29 07:20:11;;;;;;;39.15;13.63;;;;;;;;;;5034773;28;20040;-43
2024/01/29 07:22:38;;;;;;;47.13;14.25;;;;;;;;;;5025882;28;20036;-40
2024/01/29 07:25:06;;;;;;;44.38;14.07;;;;;;;;;;5035807;28;20063;-40
2024/01/29 07:27:35;;;;;;;41.53;14.10;;;;;;;;;;4933096;28;20255;-40
2024/01/29 07:30:04;;;;;;;42.03;14.70;;;;;;;;;;4931895;28;20036;-41
2024/01/29 07:32:33;;;;;;;40.45;13.60;;;;;;;;;;5037072;28;20059;-40
2024/01/29 07:35:02;;;;;;;45.92;14.07;;;;;;;;;;5034698;28;20438;-41
2024/01/29 07:37:30;;;;;;;37.65;13.15;;;;;;;;;;5034430;28;20036;-40
2024/01/29 07:39:58;;;;;;;44.03;13.07;;;;;;;;;;5033571;28;20445;-41
2024/01/29 07:42:28;;;;;;;45.08;13.30;;;;;;;;;;5024877;28;20041;-40
2024/01/29 07:44:56;;;;;;;50.10;13.32;;;;;;;;;;5027937;28;20912;-40
2024/01/29 07:47:23;;;;;;;38.80;13.48;;;;;;;;;;5009265;28;20051;-41
2024/01/29 07:49:53;;;;;;;43.80;13.35;;;;;;;;;;5031401;28;20033;-40
2024/01/29 07:52:20;;;;;;;36.83;11.80;;;;;;;;;;5022158;28;20498;-41
2024/01/29 07:54:48;;;;;;;39.33;13.02;;;;;;;;;;5028230;28;20051;-41
2024/01/29 07:57:22;;;;;;;31.15;9.65;;;;;;;;;;5031830;28;20060;-42
2024/01/29 07:59:50;;;;;;;33.95;11.27;;;;;;;;;;5042551;28;20037;-41
2024/01/29 08:02:17;;;;;;;35.08;11.50;;;;;;;;;;5018402;28;20178;-42
2024/01/29 08:04:45;;;;;;;37.13;11.57;;;;;;;;;;5017904;28;20032;-40
2024/01/29 08:07:15;;;;;;;35.58;11.90;;;;;;;;;;5020646;28;20036;-41
2024/01/29 08:09:45;;;;;;;32.95;12.70;;;;;;;;;;5031688;28;20040;-43
2024/01/29 08:12:13;;;;;;;32.33;11.65;;;;;;;;;;5014276;28;20040;-40
2024/01/29 08:14:42;;;;;;;34.38;11.25;;;;;;;;;;5033851;28;20051;-41
2024/01/29 08:17:10;;;;;;;35.97;12.43;;;;;;;;;;5022199;28;20033;-41
2024/01/29 08:19:38;;;;;;;47.85;12.95;;;;;;;;;;5029872;28;20036;-41
2024/01/29 08:22:06;;;;;;;39.10;12.45;;;;;;;;;;5024991;28;20097;-41
2024/01/29 08:24:35;;;;;;;40.22;12.93;;;;;;;;;;5022665;28;20029;-42
2024/01/29 08:27:04;;;;;;;37.38;14.43;;;;;;;;;;4931590;28;20869;-43
2024/01/29 08:32:23;;;;;;;39.78;12.48;;;;;;;;;;4975209;28;20596;-43
2024/01/29 08:34:51;;;;;;;43.00;13.07;;;;;;;;;;5016994;28;20045;-42
2024/01/29 08:37:19;;;;;;;45.42;11.85;;;;;;;;;;5010839;28;22251;-42
2024/01/29 08:39:49;;;;;;;33.88;11.77;;;;;;;;;;5011560;28;20128;-41
2024/01/29 08:42:22;;;;;;;40.87;13.20;;;;;;;;;;5033710;28;20084;-42
2024/01/29 08:44:50;;;;;;;35.53;10.98;;;;;;;;;;5028749;28;20041;-41
2024/01/29 08:47:18;;;;;;;30.67;11.68;;;;;;;;;;5019296;28;20494;-40
2024/01/29 08:49:54;;;;;;;34.90;11.30;;;;;;;;;;5017346;28;20037;-41
2024/01/29 08:52:22;;;;;;;33.03;11.77;;;;;;;;;;5008200;28;20100;-43
2024/01/29 08:54:52;;;;;;;37.43;11.87;;;;;;;;;;5010490;28;20044;-44
2024/01/29 08:57:20;;;;;;;35.30;11.30;;;;;;;;;;5012797;28;20044;-41
2024/01/29 08:59:48;;;;;;;36.17;12.00;;;;;;;;;;5011443;28;20041;-41
2024/01/29 09:02:16;;;;;;;41.80;12.43;;;;;;;;;;5010035;28;20076;-41
2024/01/29 09:04:44;;;;;;;34.87;12.60;;;;;;;;;;4669373;28;10000632;-42
2024/01/29 09:07:12;;;;;;;42.10;12.77;;;;;;;;;;5004227;28;20593;-41
2024/01/29 09:09:41;;;;;;;35.50;11.53;;;;;;;;;;5023409;28;20112;-43
2024/01/29 09:12:10;;;;;;;37.85;12.65;;;;;;;;;;4996363;28;20383;-41
2024/01/29 09:14:38;;;;;;;33.67;12.52;;;;;;;;;;5005773;28;20044;-42
2024/01/29 09:17:07;;;;;;;30.92;11.40;;;;;;;;;;4998318;28;20090;-43
2024/01/29 09:19:34;;;;;;;35.85;13.13;;;;;;;;;;5016246;28;20056;-41
2024/01/29 09:22:02;;;;;;;28.83;12.27;;;;;;;;;;4982722;28;20068;-43
2024/01/29 09:24:30;;;;;;;35.72;12.82;;;;;;;;;;4999664;28;20037;-42
2024/01/29 09:27:00;;;;;;;30.95;11.25;;;;;;;;;;4897678;28;32073;-42
2024/01/29 09:29:29;;;;;;;35.17;12.00;;;;;;;;;;4924245;28;20040;-41
2024/01/29 09:32:05;;;;;;;32.38;11.15;;;;;;;;;;4998355;28;20827;-42
2024/01/29 09:34:33;;;;;;;34.80;11.43;;;;;;;;;;5000804;28;20075;-45
2024/01/29 09:37:00;;;;;;;30.58;12.10;;;;;;;;;;5017948;28;20068;-42
2024/01/29 09:39:28;;;;;;;30.23;11.63;;;;;;;;;;4990738;28;20173;-44
2024/01/29 09:41:59;;;;;;;30.33;11.32;;;;;;;;;;5019721;28;20045;-44
2024/01/29 09:44:29;;;;;;;30.23;11.70;;;;;;;;;;4994102;28;20125;-42
2024/01/29 09:46:59;;;;;;;37.47;10.90;;;;;;;;;;4997669;28;20045;-41
2024/01/29 09:49:26;;;;;;;34.40;10.75;;;;;;;;;;5002496;28;20117;-41
2024/01/29 09:51:55;;;;;;;31.52;11.63;;;;;;;;;;5019537;28;20045;-42
2024/01/29 09:54:23;;;;;;;26.63;10.98;;;;;;;;;;5000655;28;20477;-43
2024/01/29 09:56:51;;;;;;;30.88;11.07;;;;;;;;;;5020605;28;20510;-41
2024/01/29 09:59:19;;;;;;;24.20;10.03;;;;;;;;;;5001357;28;20117;-41
2024/01/29 10:01:47;;;;;;;26.75;9.98;;;;;;;;;;5016655;28;20060;-44
2024/01/29 10:04:18;;;;;;;28.65;10.77;;;;;;;;;;4969183;28;20466;-42
2024/01/29 10:06:46;;;;;;;28.75;10.18;;;;;;;;;;5034521;28;20044;-42
2024/01/29 10:09:16;;;;;;;24.38;10.10;;;;;;;;;;5041414;28;20463;-42
2024/01/29 10:11:43;;;;;;;27.80;9.53;;;;;;;;;;5017041;28;20124;-42
2024/01/29 10:14:11;;;;;;;24.75;10.20;;;;;;;;;;5029787;28;20052;-41
2024/01/29 10:16:39;;;;;;;29.27;10.65;;;;;;;;;;5038777;28;20048;-41
2024/01/29 10:19:07;;;;;;;21.70;8.90;;;;;;;;;;5027744;28;20051;-44
2024/01/29 10:21:39;;;;;;;25.90;9.93;;;;;;;;;;5036736;28;20076;-42
2024/01/29 10:24:14;;;;;;;29.70;10.50;;;;;;;;;;5023707;28;20045;-42
2024/01/29 10:26:49;;;;;;;26.48;10.18;;;;;;;;;;4926841;28;20049;-42
2024/01/29 10:29:18;;;;;;;25.35;9.68;;;;;;;;;;4942406;28;20048;-41
2024/01/29 10:31:46;;;;;;;23.52;10.18;;;;;;;;;;5004404;28;20040;-42
2024/01/29 10:34:13;;;;;;;24.45;9.75;;;;;;;;;;5030898;28;20487;-43
2024/01/29 10:36:44;;;;;;;29.97;9.13;;;;;;;;;;5014928;28;20052;-43
2024/01/29 10:39:13;;;;;;;22.73;9.18;;;;;;;;;;5029388;28;20040;-41
2024/01/29 10:41:43;;;;;;;22.58;9.05;;;;;;;;;;5005149;28;20051;-42
2024/01/29 10:44:12;;;;;;;21.83;8.65;;;;;;;;;;5017370;28;20051;-41
2024/01/29 10:46:43;;;;;;;22.02;8.90;;;;;;;;;;5017220;28;20913;-42
2024/01/29 10:49:13;;;;;;;20.37;8.43;;;;;;;;;;5026643;28;20040;-42
2024/01/29 10:51:43;;;;;;;23.05;9.23;;;;;;;;;;5029299;28;20036;-41
2024/01/29 10:54:11;;;;;;;21.50;8.55;;;;;;;;;;5028129;28;20045;-42
2024/01/29 10:56:39;;;;;;;24.98;7.38;;;;;;;;;;5029749;28;20893;-41
2024/01/29 10:59:25;;;;;;;23.75;8.57;;;;;;;;;;5005691;28;20040;-41
2024/01/29 11:01:55;;;;;;;24.10;7.40;;;;;;;;;;5012062;28;20133;-41
2024/01/29 11:04:32;;;;;;;22.23;7.78;;;;;;;;;;5011756;28;20050;-42
2024/01/29 11:07:06;;;;;;;21.67;8.37;;;;;;;;;;4324997;28;10000570;-40
2024/01/29 11:09:34;;;;;;;20.23;7.50;;;;;;;;;;5018922;28;20544;-41
2024/01/29 11:12:02;;;;;;;19.08;7.80;;;;;;;;;;5017568;28;20048;-41
2024/01/29 11:14:39;;;;;;;22.60;7.82;;;;;;;;;;5017452;28;20098;-41
2024/01/29 11:17:07;;;;;;;21.57;7.47;;;;;;;;;;5005275;28;20049;-41
2024/01/29 11:19:35;;;;;;;22.88;8.65;;;;;;;;;;5016627;28;20041;-41
2024/01/29 11:22:04;;;;;;;21.02;8.18;;;;;;;;;;5020708;28;20044;-41
2024/01/29 11:24:33;;;;;;;20.67;6.90;;;;;;;;;;5020940;28;20041;-41
2024/01/29 11:27:08;;;;;;;21.13;7.45;;;;;;;;;;4908658;28;20145;-41
2024/01/29 11:29:39;;;;;;;22.00;7.40;;;;;;;;;;4952815;28;20055;-42
2024/01/29 11:32:07;;;;;;;18.50;7.93;;;;;;;;;;5027333;28;20059;-41
2024/01/29 11:34:40;;;;;;;19.90;7.25;;;;;;;;;;4989184;28;20566;-40
2024/01/29 11:37:10;;;;;;;20.42;7.90;;;;;;;;;;5020022;28;20520;-42
2024/01/29 11:39:50;;;;;;;19.02;6.70;;;;;;;;;;5012062;28;20036;-41
2024/01/29 11:42:19;;;;;;;16.53;7.97;;;;;;;;;;5026003;28;20068;-42
2024/01/29 11:44:47;;;;;;;20.80;8.32;;;;;;;;;;5020192;28;20037;-42
2024/01/29 11:47:17;;;;;;;20.88;7.72;;;;;;;;;;5050225;28;20032;-41
2024/01/29 11:49:45;;;;;;;18.02;7.38;;;;;;;;;;5019797;28;20545;-41
2024/01/29 11:52:16;;;;;;;17.65;7.57;;;;;;;;;;5018697;28;20854;-41
2024/01/29 11:54:44;;;;;;;16.37;7.73;;;;;;;;;;5048586;28;20403;-42
2024/01/29 11:57:12;;;;;;;20.25;7.25;;;;;;;;;;5026423;28;20345;-41
2024/01/29 11:59:44;;;;;;;18.70;7.07;;;;;;;;;;5017612;28;20530;-41
2024/01/29 12:02:11;;;;;;;17.85;7.15;;;;;;;;;;5022806;28;20063;-42
2024/01/29 12:04:43;;;;;;;16.90;6.95;;;;;;;;;;5020717;28;20045;-41
2024/01/29 12:07:11;;;;;;;18.07;6.53;;;;;;;;;;5022137;28;20046;-42
2024/01/29 12:09:40;;;;;;;15.52;6.25;;;;;;;;;;5028841;28;20048;-41
2024/01/29 12:12:09;;;;;;;21.25;7.70;;;;;;;;;;5013082;28;20525;-41
2024/01/29 12:14:46;;;;;;;17.90;6.20;;;;;;;;;;4998148;28;20041;-42
2024/01/29 12:17:32;;;;;;;16.48;7.18;;;;;;;;;;5017077;28;20724;-43
2024/01/29 12:20:00;;;;;;;22.67;8.00;;;;;;;;;;5023500;28;20043;-41
2024/01/29 12:22:28;;;;;;;13.55;5.97;;;;;;;;;;5000907;28;20040;-42
2024/01/29 12:24:59;;;;;;;16.05;5.78;;;;;;;;;;5038443;28;20044;-42
2024/01/29 12:27:26;;;;;;;15.07;6.88;;;;;;;;;;4891781;28;20145;-44
2024/01/29 12:29:55;;;;;;;21.02;7.05;;;;;;;;;;4887957;28;21475;-43
2024/01/29 12:32:23;;;;;;;19.37;6.87;;;;;;;;;;4996462;28;20048;-43
2024/01/29 12:34:52;;;;;;;16.15;5.72;;;;;;;;;;4998716;28;20049;-44
2024/01/29 12:37:21;;;;;;;17.48;7.05;;;;;;;;;;5031350;28;20119;-43
2024/01/29 12:39:52;;;;;;;17.00;6.85;;;;;;;;;;4707337;28;10000647;-42
2024/01/29 12:42:21;;;;;;;16.80;7.22;;;;;;;;;;4684295;28;10000477;-41
2024/01/29 12:44:51;;;;;;;14.07;7.03;;;;;;;;;;4979220;28;20052;-42
2024/01/29 12:47:19;;;;;;;18.17;8.43;;;;;;;;;;5016221;28;20547;-44
2024/01/29 12:49:48;;;;;;;15.23;7.05;;;;;;;;;;5011285;28;20444;-41
2024/01/29 12:52:16;;;;;;;19.80;7.82;;;;;;;;;;5011745;28;20670;-42
2024/01/29 12:54:45;;;;;;;17.08;7.15;;;;;;;;;;5013459;28;20355;-42
2024/01/29 12:57:13;;;;;;;19.08;7.80;;;;;;;;;;5025968;28;20043;-42
2024/01/29 12:59:45;;;;;;;20.30;7.70;;;;;;;;;;5007687;28;20238;-41
2024/01/29 13:02:12;;;;;;;20.83;8.13;;;;;;;;;;5010311;28;20057;-44
2024/01/29 13:04:40;;;;;;;15.02;7.18;;;;;;;;;;5011937;28;20044;-42
2024/01/29 13:07:08;;;;;;;17.20;7.40;;;;;;;;;;5002268;28;20051;-42
2024/01/29 13:09:36;;;;;;;13.94;7.00;;;;;;;;;;4667562;28;10000416;-43
2024/01/29 13:12:04;;;;;;;16.17;7.40;;;;;;;;;;4674142;28;10000580;-40
2024/01/29 13:14:32;;;;;;;14.87;6.87;;;;;;;;;;5014663;28;20047;-42
2024/01/29 13:17:01;;;;;;;16.45;6.90;;;;;;;;;;5019250;28;20661;-41
2024/01/29 13:19:29;;;;;;;16.02;7.70;;;;;;;;;;5004398;28;20044;-41
2024/01/29 13:22:03;;;;;;;18.63;8.02;;;;;;;;;;5016767;28;20044;-42
2024/01/29 13:24:33;;;;;;;18.42;7.85;;;;;;;;;;5027138;28;20574;-42
2024/01/29 13:27:01;;;;;;;15.60;7.90;;;;;;;;;;4968004;28;20036;-41
2024/01/29 13:29:29;;;;;;;17.20;8.00;;;;;;;;;;4965981;28;20230;-42
2024/01/29 13:31:56;;;;;;;18.75;8.48;;;;;;;;;;5017396;28;20289;-42
2024/01/29 13:34:28;;;;;;;20.63;9.18;;;;;;;;;;5014439;28;20060;-42
2024/01/29 13:36:56;;;;;;;23.00;9.80;;;;;;;;;;5030281;28;20138;-42
2024/01/29 13:39:32;;;;;;;21.30;9.30;;;;;;;;;;5019075;28;20037;-42
2024/01/29 13:42:01;;;;;;;19.80;8.73;;;;;;;;;;5034841;28;20430;-42
2024/01/29 13:44:29;;;;;;;20.77;10.20;;;;;;;;;;5015611;28;20063;-43
2024/01/29 13:46:57;;;;;;;20.23;8.23;;;;;;;;;;5029089;28;20102;-41
2024/01/29 13:49:27;;;;;;;19.83;9.30;;;;;;;;;;5008549;28;20987;-42
2024/01/29 13:51:56;;;;;;;21.03;9.10;;;;;;;;;;5015485;28;20051;-43
2024/01/29 13:54:27;;;;;;;20.75;9.75;;;;;;;;;;5024722;28;20571;-42
2024/01/29 13:56:55;;;;;;;19.60;9.02;;;;;;;;;;5015310;28;20044;-42
2024/01/29 13:59:23;;;;;;;20.80;9.80;;;;;;;;;;5019069;28;20148;-42
2024/01/29 14:01:51;;;;;;;23.02;9.43;;;;;;;;;;5018064;28;20053;-41
2024/01/29 14:04:19;;;;;;;21.50;10.70;;;;;;;;;;5007639;28;20044;-45
2024/01/29 14:06:58;;;;;;;23.48;10.45;;;;;;;;;;5029050;28;20040;-45
2024/01/29 14:09:26;;;;;;;22.80;9.95;;;;;;;;;;5027344;28;20244;-42
2024/01/29 14:11:55;;;;;;;22.95;10.60;;;;;;;;;;5026452;28;20036;-42
2024/01/29 14:14:23;;;;;;;22.70;9.27;;;;;;;;;;5003195;28;20036;-43
2024/01/29 14:17:00;;;;;;;26.20;10.27;;;;;;;;;;5005020;28;20867;-41
2024/01/29 14:19:28;;;;;;;22.27;10.13;;;;;;;;;;5020070;28;20036;-41
2024/01/29 14:21:58;;;;;;;24.23;9.48;;;;;;;;;;5029026;28;20487;-41
2024/01/29 14:24:32;;;;;;;22.80;10.20;;;;;;;;;;5023214;28;20102;-40
2024/01/29 14:27:02;;;;;;;29.02;10.63;;;;;;;;;;4916284;28;20878;-41
2024/01/29 14:29:30;;;;;;;31.17;10.37;;;;;;;;;;4971630;28;20050;-40
2024/01/29 14:32:03;;;;;;;24.35;10.02;;;;;;;;;;5021921;28;20802;-40